Time;durP1;ratioP1;P1;durP2;ratioP2;P2;SDS_P1;SDS_P2;PMS_P1;PMS_P2;Temp;Humidity;BMP_temperature;BMP_pressure;BME280_temperature;BME280_humidity;BME280_pressure;Samples;Min_cycle;Max_cycle;Signal;HPM_P1;HPM_P2
2023/11/25 00:21:54;;;;;;;12.20;6.30;;;;;;;1.50;67.61;95076.48;106421;1280;94126;-77
2023/11/25 00:24:41;;;;;;;12.70;7.30;;;;;;;1.51;67.85;95079.02;106754;1278;93668;-76
2023/11/25 00:37:11;;;;;;;8.10;5.10;;;;;;;1.59;68.23;95097.02;106376;1280;93657;-76
2023/11/25 00:40:25;;;;;;;6.40;4.00;;;;;;;1.61;68.09;95094.46;106814;1273;93707;-76
2023/11/25 00:43:36;;;;;;;7.00;3.80;;;;;;;1.58;67.78;95085.73;106920;1276;101152;-76
2023/11/25 01:01:52;;;;;;;4.90;2.90;;;;;;;1.63;68.98;95071.51;101547;1297;636017;-78
2023/11/25 01:04:20;;;;;;;3.80;2.90;;;;;;;1.57;69.47;95068.88;104016;1279;96024;-79
2023/11/25 01:06:48;;;;;;;8.50;4.00;;;;;;;1.54;69.65;95066.86;104016;1273;95999;-77
2023/11/25 01:09:16;;;;;;;9.00;5.00;;;;;;;1.53;69.88;95068.42;104033;1270;99335;-74
2023/11/25 01:11:44;;;;;;;11.50;6.30;;;;;;;1.52;70.18;95072.80;104054;1273;100346;-74
2023/11/25 01:14:13;;;;;;;8.10;5.10;;;;;;;1.50;70.37;95069.73;104009;1273;98441;-78
2023/11/25 01:16:41;;;;;;;9.60;5.60;;;;;;;1.48;70.57;95075.70;103929;1282;282455;-83
2023/11/25 01:19:09;;;;;;;11.10;6.20;;;;;;;1.44;70.87;95073.94;104224;1273;95915;-84
2023/11/25 01:21:36;;;;;;;12.40;5.90;;;;;;;1.38;71.17;95074.98;104140;1267;99637;-84
2023/11/25 01:24:06;;;;;;;10.10;5.20;;;;;;;1.35;71.49;95076.00;104110;1283;100197;-81
2023/11/25 01:26:34;;;;;;;8.30;4.30;;;;;;;1.31;71.62;95072.40;103766;1285;98565;-76
2023/11/25 01:29:02;;;;;;;11.10;4.60;;;;;;;1.25;71.87;95069.56;104066;1274;96908;-84
2023/11/25 01:31:31;;;;;;;6.90;4.00;;;;;;;1.18;72.13;95069.55;103884;1274;96036;-74
2023/11/25 01:33:59;;;;;;;6.60;3.70;;;;;;;1.13;72.31;95074.14;103976;1283;100704;-74
2023/11/25 01:36:28;;;;;;;8.20;4.60;;;;;;;1.10;72.51;95071.52;103830;1284;100337;-74
2023/11/25 01:38:58;;;;;;;7.30;5.00;;;;;;;1.08;72.68;95073.96;104033;1283;100978;-74
2023/11/25 01:41:26;;;;;;;10.60;5.40;;;;;;;1.06;72.88;95074.21;103970;1273;96712;-75
2023/11/25 01:43:55;;;;;;;8.20;5.00;;;;;;;1.03;72.93;95073.48;103966;1274;96726;-75
2023/11/25 01:46:39;;;;;;;10.40;6.20;;;;;;;0.99;73.02;95076.39;104047;1271;100802;-75
2023/11/25 01:49:08;;;;;;;5.90;4.00;;;;;;;0.95;73.15;95071.63;103758;1284;101244;-75
2023/11/25 01:51:37;;;;;;;7.50;4.30;;;;;;;0.92;73.23;95068.64;103979;1283;100217;-75
2023/11/25 01:54:07;;;;;;;8.70;4.40;;;;;;;0.88;73.37;95068.93;104012;1281;96088;-76
2023/11/25 01:56:35;;;;;;;7.60;4.30;;;;;;;0.85;73.44;95066.77;103868;1286;97179;-76
2023/11/25 01:59:06;;;;;;;8.50;4.50;;;;;;;0.86;73.54;95065.99;103451;1278;100810;-76
2023/11/25 02:01:35;;;;;;;7.90;5.00;;;;;;;0.85;73.68;95066.73;103873;1284;100456;-75
2023/11/25 02:04:03;;;;;;;8.00;5.10;;;;;;;0.79;73.93;95066.63;104073;1272;99941;-78
2023/11/25 02:06:32;;;;;;;9.30;5.30;;;;;;;0.76;74.05;95064.67;103993;1270;96186;-74
2023/11/25 02:09:00;;;;;;;8.70;5.50;;;;;;;0.76;74.09;95064.14;104146;1270;97156;-82
2023/11/25 02:11:28;;;;;;;9.80;5.60;;;;;;;0.79;74.15;95066.55;103921;1283;99218;-83
2023/11/25 02:13:56;;;;;;;9.70;6.00;;;;;;;0.81;74.23;95071.46;104029;1273;108906;-83
2023/11/25 02:16:24;;;;;;;7.70;5.20;;;;;;;0.81;74.40;95065.81;104008;1274;99124;-83
2023/11/25 02:18:53;;;;;;;7.10;5.30;;;;;;;0.82;74.57;95062.71;103949;1274;96156;-82
2023/11/25 02:21:21;;;;;;;9.50;5.80;;;;;;;0.82;74.59;95062.88;104040;1283;96170;-82
2023/11/25 02:23:48;;;;;;;10.50;6.60;;;;;;;0.81;74.74;95064.80;104032;1283;100083;-82
2023/11/25 02:26:17;;;;;;;8.00;6.10;;;;;;;0.80;74.78;95065.58;103986;1274;100262;-81
2023/11/25 02:28:45;;;;;;;13.50;6.30;;;;;;;0.81;74.92;95063.20;103725;1287;100014;-82
2023/11/25 02:31:13;;;;;;;11.40;7.50;;;;;;;0.81;74.97;95064.42;103967;1273;95925;-84
2023/11/25 02:33:41;;;;;;;9.50;7.60;;;;;;;0.78;75.03;95061.61;104020;1282;96045;-83
2023/11/25 02:36:09;;;;;;;9.70;7.60;;;;;;;0.75;75.09;95061.69;103946;1275;99381;-83
2023/11/25 02:38:37;;;;;;;12.80;7.40;;;;;;;0.74;75.19;95061.07;104301;1278;101077;-84
2023/11/25 02:41:05;;;;;;;9.20;6.20;;;;;;;0.73;75.30;95058.45;104249;1276;99931;-83
2023/11/25 02:43:33;;;;;;;10.60;7.60;;;;;;;0.72;75.27;95051.89;104447;1260;95837;-83
2023/11/25 02:46:01;;;;;;;11.20;7.10;;;;;;;0.71;75.35;95047.95;104468;1262;95820;-77
2023/11/25 02:48:29;;;;;;;10.50;7.20;;;;;;;0.71;75.46;95049.30;104435;1261;100994;-76
2023/11/25 02:50:57;;;;;;;8.10;6.40;;;;;;;0.70;75.53;95055.46;104446;1271;100015;-75
2023/11/25 02:53:25;;;;;;;8.80;6.70;;;;;;;0.67;75.55;95053.91;104500;1264;98386;-75
2023/11/25 02:55:53;;;;;;;12.40;8.30;;;;;;;0.62;75.52;95054.08;104441;1264;95865;-76
2023/11/25 02:58:22;;;;;;;16.20;12.10;;;;;;;0.58;75.62;95057.61;104434;1276;96703;-75
2023/11/25 03:00:52;;;;;;;22.00;15.40;;;;;;;0.57;75.68;95059.86;104448;1276;101130;-77
2023/11/25 03:03:22;;;;;;;27.50;21.10;;;;;;;0.55;75.71;95063.08;104414;1263;101834;-81
2023/11/25 03:05:53;;;;;;;45.60;34.30;;;;;;;0.53;75.91;95065.32;104525;1260;99537;-74
2023/11/25 03:08:22;;;;;;;47.10;36.90;;;;;;;0.51;75.97;95068.58;104531;1275;96473;-74
2023/11/25 03:10:51;;;;;;;43.10;31.80;;;;;;;0.50;76.06;95066.82;104679;1259;97202;-74
2023/11/25 03:13:18;;;;;;;44.50;34.20;;;;;;;0.50;76.18;95063.84;104687;1261;99866;-74
2023/11/25 03:15:46;;;;;;;49.70;35.60;;;;;;;0.50;76.26;95060.14;104622;1260;101789;-82
2023/11/25 03:18:14;;;;;;;53.90;34.50;;;;;;;0.48;76.31;95056.63;104592;1260;100171;-82
2023/11/25 03:20:42;;;;;;;34.90;23.70;;;;;;;0.46;76.34;95056.89;104606;1260;96158;-81
2023/11/25 03:23:10;;;;;;;21.10;15.50;;;;;;;0.44;76.37;95057.09;104622;1260;95812;-83
2023/11/25 03:25:38;;;;;;;14.60;10.20;;;;;;;0.42;76.40;95058.31;104651;1262;101068;-84
2023/11/25 03:28:08;;;;;;;11.20;7.80;;;;;;;0.41;76.38;95056.55;104584;1260;101498;-83
2023/11/25 03:30:36;;;;;;;11.30;7.50;;;;;;;0.39;76.40;95058.02;104590;1264;99885;-76
2023/11/25 03:33:05;;;;;;;11.10;7.40;;;;;;;0.37;76.39;95061.98;104610;1278;95833;-75
2023/11/25 03:35:34;;;;;;;13.80;8.10;;;;;;;0.35;76.37;95065.42;104705;1264;96136;-75
2023/11/25 03:38:02;;;;;;;13.80;9.10;;;;;;;0.32;76.40;95069.02;104618;1260;100698;-76
2023/11/25 03:40:31;;;;;;;11.40;8.70;;;;;;;0.31;76.52;95067.10;104638;1266;100185;-74
2023/11/25 03:42:59;;;;;;;11.30;7.90;;;;;;;0.30;76.60;95065.55;104712;1263;98822;-82
2023/11/25 03:45:27;;;;;;;10.30;8.10;;;;;;;0.31;76.75;95063.88;104588;1261;96761;-82
2023/11/25 03:47:55;;;;;;;13.10;8.50;;;;;;;0.32;76.70;95064.29;104745;1260;96695;-83
2023/11/25 03:50:23;;;;;;;9.40;8.10;;;;;;;0.33;76.64;95070.13;104619;1273;100773;-83
2023/11/25 03:52:54;;;;;;;11.80;8.60;;;;;;;0.35;76.69;95068.08;104630;1270;101514;-82
2023/11/25 03:55:23;;;;;;;9.10;7.40;;;;;;;0.37;76.68;95068.55;104583;1258;100190;-82
2023/11/25 03:57:51;;;;;;;8.40;7.50;;;;;;;0.35;76.79;95074.69;104398;1273;96803;-82
2023/11/25 04:00:19;;;;;;;10.40;7.00;;;;;;;0.33;76.91;95073.89;104457;1264;96810;-74
2023/11/25 04:02:48;;;;;;;11.50;7.80;;;;;;;0.33;77.02;95075.20;104489;1263;101217;-83
2023/11/25 04:05:17;;;;;;;9.40;7.90;;;;;;;0.34;77.14;95070.41;104499;1265;100557;-83
2023/11/25 04:07:45;;;;;;;9.90;8.10;;;;;;;0.33;77.24;95068.33;104453;1276;99111;-83
2023/11/25 04:10:15;;;;;;;13.60;6.60;;;;;;;0.31;77.24;95067.34;104475;1264;96455;-84
2023/11/25 04:12:45;;;;;;;8.40;4.60;;;;;;;0.30;77.47;95065.30;104262;1269;96016;-83
2023/11/25 04:15:15;;;;;;;5.70;4.10;;;;;;;0.30;77.31;95067.38;104587;1264;100839;-83
2023/11/25 04:17:46;;;;;;;4.80;3.60;;;;;;;0.36;77.27;95074.92;104128;1267;101353;-74
2023/11/25 04:20:14;;;;;;;6.40;3.40;;;;;;;0.41;77.31;95076.52;104456;1261;99000;-84
2023/11/25 04:22:47;;;;;;;4.40;3.20;;;;;;;0.41;77.27;95079.34;104466;1273;96013;-85
2023/11/25 04:25:18;;;;;;;5.40;3.70;;;;;;;0.40;77.21;95081.78;104347;1267;96044;-83
2023/11/25 04:27:48;;;;;;;5.20;3.70;;;;;;;0.41;77.19;95080.03;104511;1273;100776;-84
2023/11/25 04:30:18;;;;;;;4.00;3.60;;;;;;;0.46;77.17;95078.04;104526;1260;101186;-83
2023/11/25 04:32:48;;;;;;;5.00;3.90;;;;;;;0.49;77.13;95084.23;104588;1260;99172;-75
2023/11/25 04:35:19;;;;;;;5.80;4.50;;;;;;;0.51;77.15;95083.83;104537;1262;97291;-73
2023/11/25 04:37:47;;;;;;;4.80;3.80;;;;;;;0.54;77.05;95086.31;104620;1257;97036;-74
2023/11/25 04:40:16;;;;;;;5.60;3.90;;;;;;;0.53;76.99;95086.02;104673;1261;100472;-82
2023/11/25 04:42:45;;;;;;;4.80;4.00;;;;;;;0.53;77.04;95093.17;104465;1273;100430;-83
2023/11/25 04:45:16;;;;;;;4.20;3.60;;;;;;;0.54;76.97;95095.14;104707;1258;99361;-84
2023/11/25 04:47:47;;;;;;;4.90;4.00;;;;;;;0.56;76.98;95096.77;104705;1257;95918;-74
2023/11/25 04:50:16;;;;;;;7.90;4.30;;;;;;;0.58;77.07;95098.98;104621;1257;96812;-78
2023/11/25 04:52:48;;;;;;;4.90;3.80;;;;;;;0.60;77.16;95106.13;104668;1265;99767;-75
2023/11/25 04:55:15;;;;;;;6.40;4.20;;;;;;;0.60;77.10;95110.23;104651;1258;101445;-76
2023/11/25 04:57:44;;;;;;;7.20;4.80;;;;;;;0.58;77.14;95112.66;104575;1262;99237;-84
2023/11/25 05:00:13;;;;;;;5.60;3.50;;;;;;;0.58;77.14;95114.83;104637;1260;95870;-83
2023/11/25 05:02:51;;;;;;;4.70;4.00;;;;;;;0.59;77.17;95116.46;104713;1257;96728;-84
2023/11/25 05:05:23;;;;;;;5.00;3.70;;;;;;;0.59;77.26;95117.82;104612;1259;108135;-84
2023/11/25 05:08:04;;;;;;;4.50;3.60;;;;;;;0.62;77.35;95121.59;104628;1264;101429;-85
2023/11/25 05:10:32;;;;;;;4.10;3.30;;;;;;;0.65;77.49;95124.90;104615;1275;99836;-82
2023/11/25 05:13:07;;;;;;;5.60;3.60;;;;;;;0.65;77.70;95128.82;104638;1261;96571;-83
2023/11/25 05:15:35;;;;;;;4.60;3.20;;;;;;;0.61;77.91;95135.21;104594;1260;97025;-82
2023/11/25 05:18:06;;;;;;;4.20;3.40;;;;;;;0.59;78.04;95135.45;104622;1259;102336;-76
2023/11/25 05:20:34;;;;;;;4.60;3.50;;;;;;;0.58;78.20;95134.30;104675;1261;100550;-77
2023/11/25 05:23:02;;;;;;;6.00;3.70;;;;;;;0.58;78.30;95135.91;104571;1264;100050;-75
2023/11/25 05:25:30;;;;;;;5.80;4.30;;;;;;;0.59;78.34;95134.80;104652;1258;96800;-76
2023/11/25 05:27:58;;;;;;;4.80;4.20;;;;;;;0.58;78.43;95134.23;104731;1260;96991;-75
2023/11/25 05:30:26;;;;;;;7.70;5.10;;;;;;;0.57;78.48;95132.39;104576;1274;102441;-75
2023/11/25 05:32:54;;;;;;;6.10;5.50;;;;;;;0.57;78.51;95136.27;104711;1257;100268;-84
2023/11/25 05:35:22;;;;;;;4.80;4.30;;;;;;;0.58;78.67;95140.67;104621;1261;98876;-75
2023/11/25 05:37:50;;;;;;;4.80;4.30;;;;;;;0.56;78.70;95150.40;104558;1262;96591;-82
2023/11/25 05:40:18;;;;;;;6.00;4.40;;;;;;;0.56;78.81;95156.60;104625;1261;96931;-81
2023/11/25 05:42:53;;;;;;;5.30;4.40;;;;;;;0.56;78.93;95160.13;104647;1273;102239;-83
2023/11/25 05:45:30;;;;;;;4.90;4.40;;;;;;;0.54;79.14;95156.73;104639;1262;101708;-83
2023/11/25 05:47:59;;;;;;;7.90;5.90;;;;;;;0.51;79.30;95156.91;104630;1261;99951;-84
2023/11/25 05:50:29;;;;;;;7.40;5.90;;;;;;;0.50;79.46;95159.23;104637;1260;96624;-82
2023/11/25 05:52:57;;;;;;;8.30;6.90;;;;;;;0.49;79.58;95161.87;104701;1261;97112;-83
2023/11/25 05:55:26;;;;;;;8.60;7.60;;;;;;;0.50;79.54;95163.45;104787;1264;102400;-76
2023/11/25 05:57:54;;;;;;;9.70;7.60;;;;;;;0.54;79.59;95168.44;104659;1262;100505;-83
2023/11/25 06:00:22;;;;;;;15.10;10.60;;;;;;;0.57;79.67;95176.86;104608;1260;100299;-83
2023/11/25 06:02:51;;;;;;;11.30;8.80;;;;;;;0.60;79.80;95182.20;104470;1264;97028;-76
2023/11/25 06:05:19;;;;;;;11.30;7.70;;;;;;;0.60;79.87;95179.96;104596;1261;96995;-75
2023/11/25 06:07:47;;;;;;;11.50;8.30;;;;;;;0.56;79.79;95182.95;104613;1257;109600;-75
2023/11/25 06:10:16;;;;;;;9.80;6.50;;;;;;;0.56;79.95;95188.27;104612;1273;102512;-75
2023/11/25 06:12:44;;;;;;;10.00;6.00;;;;;;;0.58;80.02;95189.98;104606;1256;99639;-77
2023/11/25 06:15:13;;;;;;;6.10;4.90;;;;;;;0.58;80.12;95194.72;104657;1262;96715;-84
2023/11/25 06:17:41;;;;;;;7.90;5.50;;;;;;;0.59;80.09;95192.52;104689;1260;97015;-83
2023/11/25 06:20:10;;;;;;;9.30;6.70;;;;;;;0.60;80.22;95193.20;104577;1257;101994;-82
2023/11/25 06:22:41;;;;;;;10.00;6.80;;;;;;;0.62;80.24;95198.33;104692;1261;101322;-83
2023/11/25 06:25:09;;;;;;;7.80;6.40;;;;;;;0.59;80.22;95199.98;104608;1264;98554;-83
2023/11/25 06:27:37;;;;;;;9.30;5.80;;;;;;;0.58;80.15;95201.02;104626;1261;96688;-82
2023/11/25 06:30:06;;;;;;;6.90;5.30;;;;;;;0.59;80.21;95203.70;104609;1258;97214;-83
2023/11/25 06:32:34;;;;;;;6.50;5.50;;;;;;;0.55;80.18;95209.48;104729;1271;100860;-75
2023/11/25 06:35:02;;;;;;;11.10;6.70;;;;;;;0.53;80.25;95210.63;104652;1260;100385;-75
2023/11/25 06:37:30;;;;;;;8.60;6.10;;;;;;;0.53;80.32;95211.20;104645;1260;100046;-79
2023/11/25 06:40:00;;;;;;;9.90;7.50;;;;;;;0.55;80.46;95216.73;104606;1257;96574;-75
2023/11/25 06:42:28;;;;;;;8.50;6.70;;;;;;;0.55;80.61;95224.33;104662;1261;98440;-74
2023/11/25 06:45:00;;;;;;;9.10;6.50;;;;;;;0.53;80.68;95226.11;104576;1259;102200;-74
2023/11/25 06:47:28;;;;;;;15.10;11.10;;;;;;;0.51;80.65;95228.05;104697;1269;100443;-75
2023/11/25 06:49:56;;;;;;;20.00;13.20;;;;;;;0.53;80.83;95236.27;104647;1275;99495;-75
2023/11/25 06:52:24;;;;;;;11.30;9.00;;;;;;;0.55;80.82;95249.55;104631;1260;97795;-75
2023/11/25 06:54:54;;;;;;;10.90;8.20;;;;;;;0.53;80.89;95255.80;104661;1261;97191;-85
2023/11/25 06:57:22;;;;;;;6.70;5.30;;;;;;;0.48;80.79;95256.65;104720;1258;101255;-84
2023/11/25 06:59:50;;;;;;;5.20;4.50;;;;;;;0.40;80.66;95261.23;104702;1260;101539;-85
2023/11/25 07:02:18;;;;;;;4.80;3.90;;;;;;;0.26;80.64;95272.23;104727;1257;100113;-84
2023/11/25 07:04:46;;;;;;;5.40;4.20;;;;;;;0.21;80.67;95282.23;104625;1271;97488;-84
2023/11/25 07:07:14;;;;;;;5.80;4.40;;;;;;;0.15;80.62;95290.85;104668;1261;96751;-84
2023/11/25 07:09:42;;;;;;;7.30;5.00;;;;;;;0.06;80.61;95292.60;104647;1279;100971;-84
2023/11/25 07:12:15;;;;;;;7.00;5.30;;;;;;;0.04;80.83;95297.52;104822;1261;101682;-84
2023/11/25 07:14:43;;;;;;;6.00;5.20;;;;;;;0.03;80.78;95299.96;104597;1258;99066;-75
2023/11/25 07:17:12;;;;;;;15.40;10.10;;;;;;;0.01;80.75;95304.16;104650;1269;96652;-75
2023/11/25 07:19:41;;;;;;;9.80;7.70;;;;;;;-0.02;80.69;95306.66;104673;1261;97331;-75
2023/11/25 07:22:09;;;;;;;11.20;9.40;;;;;;;-0.02;80.64;95311.44;104645;1262;101474;-75
2023/11/25 07:24:39;;;;;;;12.80;7.70;;;;;;;-0.07;80.52;95318.24;104852;1261;101479;-75
2023/11/25 07:27:10;;;;;;;7.60;6.00;;;;;;;-0.08;80.52;95329.02;104607;1263;100178;-76
2023/11/25 07:29:38;;;;;;;7.90;5.10;;;;;;;-0.07;80.60;95332.77;104550;1265;96603;-75
2023/11/25 07:32:09;;;;;;;7.20;5.10;;;;;;;-0.13;80.39;95338.62;104733;1261;97153;-76
2023/11/25 07:34:37;;;;;;;7.10;4.90;;;;;;;-0.17;80.32;95341.37;104608;1257;101371;-77
2023/11/25 07:37:06;;;;;;;9.20;6.60;;;;;;;-0.16;80.33;95341.58;104737;1260;100041;-75
2023/11/25 07:39:35;;;;;;;10.20;5.60;;;;;;;-0.15;80.37;95346.23;104685;1260;100579;-78
2023/11/25 07:42:04;;;;;;;5.80;4.60;;;;;;;-0.17;80.39;95350.10;104538;1263;97750;-76
2023/11/25 07:44:31;;;;;;;9.10;5.50;;;;;;;-0.13;80.40;95359.33;104643;1259;97795;-75
2023/11/25 07:47:01;;;;;;;6.90;5.80;;;;;;;-0.11;80.27;95362.73;104979;1260;100811;-75
2023/11/25 07:49:31;;;;;;;9.30;6.40;;;;;;;-0.12;80.25;95363.88;108235;1256;100328;-75
2023/11/25 07:52:08;;;;;;;9.50;6.50;;;;;;;-0.16;80.26;95366.50;108347;1256;99102;-83
2023/11/25 07:55:13;;;;;;;9.10;6.50;;;;;;;-0.16;80.22;95373.65;108372;1256;94470;-82
2023/11/25 07:57:41;;;;;;;9.00;6.10;;;;;;;-0.16;80.28;95374.06;105617;1260;97067;-82
2023/11/25 08:00:15;;;;;;;10.40;6.10;;;;;;;-0.17;80.36;95377.73;104702;1264;102424;-81
2023/11/25 08:02:55;;;;;;;9.20;6.70;;;;;;;-0.17;80.33;95386.04;107222;1257;101087;-84
2023/11/25 08:05:34;;;;;;;7.30;5.90;;;;;;;-0.13;80.29;95388.39;104604;1271;100005;-85
2023/11/25 08:08:03;;;;;;;7.20;6.10;;;;;;;-0.12;80.20;95390.85;104669;1260;97895;-85
2023/11/25 08:10:34;;;;;;;10.00;6.70;;;;;;;-0.15;80.04;95396.17;104703;1256;97010;-82
2023/11/25 08:13:02;;;;;;;8.10;5.50;;;;;;;-0.15;80.07;95397.28;104659;1256;102349;-74
2023/11/25 08:15:32;;;;;;;6.40;4.30;;;;;;;-0.10;80.04;95399.63;104661;1258;100272;-75
2023/11/25 08:18:03;;;;;;;6.60;4.70;;;;;;;-0.04;79.87;95401.64;104640;1262;100194;-75
2023/11/25 08:20:32;;;;;;;7.90;5.40;;;;;;;-0.01;79.55;95411.34;104776;1259;96564;-74
2023/11/25 08:23:04;;;;;;;5.70;4.30;;;;;;;-0.02;79.41;95408.83;104584;1262;97109;-75
2023/11/25 08:25:32;;;;;;;7.80;4.50;;;;;;;-0.09;79.19;95409.02;104611;1262;102196;-74
2023/11/25 08:28:00;;;;;;;5.60;3.60;;;;;;;-0.11;79.16;95413.95;104684;1260;101652;-76
2023/11/25 08:30:30;;;;;;;5.90;4.70;;;;;;;-0.10;79.24;95411.99;104624;1258;99194;-76
2023/11/25 08:32:59;;;;;;;7.20;4.90;;;;;;;-0.09;79.01;95414.28;104589;1260;96560;-76
2023/11/25 08:35:27;;;;;;;6.10;4.50;;;;;;;-0.08;78.89;95415.51;104559;1263;97097;-75
2023/11/25 08:38:01;;;;;;;7.50;4.30;;;;;;;-0.06;78.84;95419.28;104700;1261;102295;-77
2023/11/25 08:40:34;;;;;;;7.50;4.20;;;;;;;-0.05;78.63;95425.20;104727;1258;100478;-74
2023/11/25 08:43:08;;;;;;;5.70;3.90;;;;;;;-0.07;78.40;95438.25;104682;1258;99772;-76
2023/11/25 08:45:47;;;;;;;7.60;4.30;;;;;;;-0.14;78.07;95442.23;104638;1262;96963;-85
2023/11/25 08:48:15;;;;;;;9.40;5.40;;;;;;;-0.24;78.04;95451.51;104641;1260;98047;-75
2023/11/25 08:50:44;;;;;;;7.20;4.90;;;;;;;-0.30;78.20;95455.25;104638;1261;102278;-74
2023/11/25 08:53:14;;;;;;;7.90;5.10;;;;;;;-0.29;78.17;95458.23;104590;1260;101606;-74
2023/11/25 08:55:44;;;;;;;9.50;5.20;;;;;;;-0.28;78.24;95464.20;104695;1261;100136;-75
2023/11/25 08:58:12;;;;;;;6.10;4.40;;;;;;;-0.38;78.19;95474.27;104653;1261;97249;-75
2023/11/25 09:00:44;;;;;;;7.90;5.30;;;;;;;-0.43;78.46;95484.21;104702;1259;98022;-75
2023/11/25 09:03:14;;;;;;;8.90;5.80;;;;;;;-0.45;78.70;95484.80;104700;1260;101295;-84
2023/11/25 09:05:43;;;;;;;9.50;6.90;;;;;;;-0.46;79.10;95490.55;104723;1262;100070;-84
2023/11/25 09:08:11;;;;;;;12.50;8.00;;;;;;;-0.45;79.37;95494.64;104668;1260;99905;-76
2023/11/25 09:10:42;;;;;;;12.20;8.50;;;;;;;-0.43;79.63;95500.25;104687;1260;97888;-84
2023/11/25 09:13:10;;;;;;;7.30;4.80;;;;;;;-0.41;79.74;95504.23;104725;1274;97499;-84
2023/11/25 09:15:38;;;;;;;7.30;6.00;;;;;;;-0.43;79.72;95507.73;104540;1264;102305;-84
2023/11/25 09:18:07;;;;;;;7.40;6.30;;;;;;;-0.46;79.53;95509.14;104462;1259;100396;-84
2023/11/25 09:20:35;;;;;;;9.20;5.60;;;;;;;-0.43;79.54;95510.48;104542;1274;100035;-84
2023/11/25 09:23:03;;;;;;;9.50;7.00;;;;;;;-0.42;79.36;95516.01;104497;1262;97442;-85
2023/11/25 09:25:31;;;;;;;7.30;5.70;;;;;;;-0.43;79.20;95513.14;104596;1259;97014;-84
2023/11/25 09:27:59;;;;;;;9.30;6.10;;;;;;;-0.44;79.00;95516.79;104578;1258;102345;-84
2023/11/25 09:30:27;;;;;;;6.50;5.80;;;;;;;-0.43;78.76;95519.57;104508;1262;101663;-74
2023/11/25 09:32:54;;;;;;;8.90;5.50;;;;;;;-0.47;78.58;95520.92;104429;1265;99153;-75
2023/11/25 09:35:22;;;;;;;7.00;5.30;;;;;;;-0.49;78.60;95524.94;104480;1265;96664;-75
2023/11/25 09:37:50;;;;;;;7.50;5.90;;;;;;;-0.45;78.52;95531.29;104605;1259;97215;-75
2023/11/25 09:40:19;;;;;;;8.60;5.70;;;;;;;-0.42;78.61;95531.29;104588;1264;100979;-75
2023/11/25 09:42:48;;;;;;;10.00;6.80;;;;;;;-0.39;78.59;95533.98;104400;1259;101811;-77
2023/11/25 09:45:15;;;;;;;11.90;7.30;;;;;;;-0.40;78.57;95537.69;104551;1262;99938;-75
2023/11/25 09:47:44;;;;;;;10.30;6.40;;;;;;;-0.49;78.52;95543.65;104612;1257;97889;-84
2023/11/25 09:50:14;;;;;;;9.90;6.80;;;;;;;-0.61;78.53;95546.02;104668;1264;97014;-83
2023/11/25 09:52:55;;;;;;;7.70;5.70;;;;;;;-0.73;78.52;95542.83;104711;1258;102468;-83
2023/11/25 09:55:23;;;;;;;8.10;5.60;;;;;;;-0.76;78.62;95544.07;104504;1258;101390;-84
2023/11/25 09:58:03;;;;;;;10.70;6.70;;;;;;;-0.70;78.70;95546.43;104682;1261;99693;-83
2023/11/25 10:00:32;;;;;;;8.60;6.30;;;;;;;-0.67;78.67;95553.44;104681;1264;96761;-84
2023/11/25 10:03:02;;;;;;;10.00;7.40;;;;;;;-0.62;78.51;95559.02;104740;1257;97306;-83
2023/11/25 10:05:31;;;;;;;11.50;7.70;;;;;;;-0.58;78.45;95559.02;104652;1261;100808;-82
2023/11/25 10:07:58;;;;;;;14.40;8.90;;;;;;;-0.51;78.48;95555.34;104720;1260;100233;-82
2023/11/25 10:10:28;;;;;;;13.00;9.40;;;;;;;-0.42;78.46;95558.11;104666;1258;98620;-82
2023/11/25 10:12:56;;;;;;;19.20;12.00;;;;;;;-0.37;78.44;95560.91;104470;1264;96691;-82
2023/11/25 10:15:24;;;;;;;26.90;17.30;;;;;;;-0.33;78.43;95558.94;104703;1256;96982;-82
2023/11/25 10:17:54;;;;;;;31.70;19.20;;;;;;;-0.23;78.41;95561.32;104736;1257;100800;-86
2023/11/25 10:20:23;;;;;;;19.00;13.60;;;;;;;-0.13;78.35;95557.05;104678;1271;101579;-85
2023/11/25 10:22:59;;;;;;;21.30;14.00;;;;;;;-0.04;78.22;95563.42;106687;1257;98888;-75
2023/11/25 10:25:36;;;;;;;18.10;12.20;;;;;;;0.06;78.17;95565.27;108306;1257;94551;-75
2023/11/25 10:28:14;;;;;;;20.90;13.80;;;;;;;0.14;78.02;95562.04;107692;1255;97038;-82
2023/11/25 10:30:42;;;;;;;23.00;14.10;;;;;;;0.21;77.73;95562.30;104872;1256;102144;-82
2023/11/25 10:33:11;;;;;;;18.20;12.40;;;;;;;0.28;77.60;95564.15;104782;1256;100084;-82
2023/11/25 10:35:40;;;;;;;23.70;14.80;;;;;;;0.41;77.53;95569.48;104831;1262;100092;-83
2023/11/25 10:38:08;;;;;;;19.90;13.50;;;;;;;0.54;77.50;95570.46;104709;1256;96686;-83
2023/11/25 10:40:36;;;;;;;17.00;9.90;;;;;;;0.62;77.18;95566.26;104720;1260;96573;-82
2023/11/25 10:43:04;;;;;;;10.90;7.20;;;;;;;0.61;76.58;95569.27;104678;1260;100832;-76
2023/11/25 10:45:32;;;;;;;11.90;7.50;;;;;;;0.55;76.23;95566.14;104679;1262;101336;-83
2023/11/25 10:48:02;;;;;;;9.40;6.30;;;;;;;0.53;76.18;95566.52;104707;1261;100103;-84
2023/11/25 10:50:32;;;;;;;10.70;7.00;;;;;;;0.54;76.23;95565.27;104745;1260;97501;-83
2023/11/25 10:53:01;;;;;;;11.60;7.40;;;;;;;0.55;76.21;95564.95;104755;1260;97020;-83
2023/11/25 10:55:29;;;;;;;13.20;8.30;;;;;;;0.60;76.25;95567.05;104705;1262;102221;-84
2023/11/25 10:58:00;;;;;;;15.00;9.40;;;;;;;0.64;76.17;95566.55;104735;1271;100435;-82
2023/11/25 11:00:32;;;;;;;10.60;7.20;;;;;;;0.67;76.01;95567.77;104639;1262;98985;-82
2023/11/25 11:03:05;;;;;;;12.90;7.70;;;;;;;0.66;75.59;95563.67;104666;1261;97129;-75
2023/11/25 11:05:50;;;;;;;16.40;9.60;;;;;;;0.58;75.46;95563.66;104721;1260;97037;-75
2023/11/25 11:08:23;;;;;;;14.80;9.20;;;;;;;0.51;75.63;95562.70;104685;1272;102439;-77
2023/11/25 11:10:59;;;;;;;15.50;11.00;;;;;;;0.53;75.78;95563.05;104709;1260;101305;-76
2023/11/25 11:13:36;;;;;;;14.80;9.40;;;;;;;0.59;75.81;95563.80;104684;1259;99630;-76
2023/11/25 11:16:13;;;;;;;12.30;7.30;;;;;;;0.71;76.07;95567.01;104718;1275;96603;-76
2023/11/25 11:18:53;;;;;;;9.70;6.50;;;;;;;0.85;76.02;95566.52;104690;1271;97043;-75
2023/11/25 11:21:27;;;;;;;10.30;7.10;;;;;;;1.05;75.94;95564.34;104674;1260;102300;-76
2023/11/25 11:23:56;;;;;;;11.10;7.50;;;;;;;1.31;75.62;95562.83;104705;1267;101425;-76
2023/11/25 11:26:29;;;;;;;14.30;8.00;;;;;;;1.36;74.82;95570.20;104609;1262;99263;-75
2023/11/25 11:29:17;;;;;;;12.20;8.60;;;;;;;1.21;74.49;95574.11;104611;1262;97413;-76
2023/11/25 11:32:03;;;;;;;13.90;8.20;;;;;;;1.23;74.50;95574.73;104671;1262;97628;-75
2023/11/25 11:34:34;;;;;;;13.20;7.80;;;;;;;1.25;74.37;95572.15;104565;1257;109511;-75
2023/11/25 11:37:03;;;;;;;12.00;7.40;;;;;;;1.20;74.05;95574.39;104738;1256;100336;-75
2023/11/25 11:39:54;;;;;;;13.30;7.30;;;;;;;1.13;74.07;95570.95;104781;1260;99088;-77
2023/11/25 11:42:23;;;;;;;11.80;6.80;;;;;;;1.15;74.34;95574.03;104629;1261;97503;-83
2023/11/25 11:45:21;;;;;;;14.70;8.50;;;;;;;1.16;74.16;95574.13;104717;1260;97151;-82
2023/11/25 11:47:55;;;;;;;14.70;7.40;;;;;;;1.14;73.93;95563.56;104648;1262;101271;-82
2023/11/25 11:50:27;;;;;;;10.30;6.70;;;;;;;1.14;73.94;95558.87;104679;1262;101207;-82
2023/11/25 11:53:01;;;;;;;13.40;7.70;;;;;;;1.23;74.03;95560.45;104652;1257;98728;-82
2023/11/25 11:55:34;;;;;;;13.00;7.20;;;;;;;1.34;73.84;95554.65;104632;1256;96632;-83
2023/11/25 11:58:13;;;;;;;10.00;6.80;;;;;;;1.47;73.55;95548.92;104623;1256;100236;-81
2023/11/25 12:00:47;;;;;;;11.00;6.40;;;;;;;1.60;73.39;95547.11;104722;1271;101416;-82
2023/11/25 12:03:17;;;;;;;10.60;5.80;;;;;;;1.78;73.12;95541.27;104739;1260;99989;-77
2023/11/25 12:05:54;;;;;;;8.50;5.70;;;;;;;1.90;72.54;95531.39;104583;1259;97828;-76
2023/11/25 12:08:24;;;;;;;11.90;6.20;;;;;;;1.95;72.37;95532.65;104707;1261;97991;-78
2023/11/25 12:10:58;;;;;;;8.70;5.80;;;;;;;2.05;72.33;95535.13;104729;1257;97087;-77
2023/11/25 12:13:26;;;;;;;13.60;6.60;;;;;;;2.19;71.89;95540.08;104641;1261;100924;-76
2023/11/25 12:16:03;;;;;;;13.10;6.00;;;;;;;2.28;71.26;95539.10;104693;1262;100166;-80
2023/11/25 12:18:35;;;;;;;9.10;4.80;;;;;;;2.37;71.14;95536.16;104645;1256;99031;-86
2023/11/25 12:21:21;;;;;;;25.30;13.00;;;;;;;2.39;70.45;95537.34;104718;1260;96582;-77
2023/11/25 12:23:53;;;;;;;18.50;9.00;;;;;;;2.29;69.84;95540.62;104706;1262;98079;-76
2023/11/25 12:26:26;;;;;;;15.30;7.50;;;;;;;2.20;69.84;95541.98;104667;1258;100979;-75